createdAt,value
2017-08-21T00:00:44.933Z,1003.99
2017-08-21T00:01:55.272Z,1003.95
2017-08-21T00:03:05.009Z,1003.97
2017-08-21T00:04:15.356Z,1003.95
2017-08-21T00:05:25.701Z,1003.99
2017-08-21T00:06:35.774Z,1003.94
2017-08-21T00:07:46.112Z,1003.93
2017-08-21T00:08:56.466Z,1003.93
2017-08-21T00:10:06.493Z,1003.92
2017-08-21T00:11:16.841Z,1003.93
2017-08-21T00:12:27.244Z,1003.96
2017-08-21T00:13:37.644Z,1003.91
2017-08-21T00:14:47.997Z,1003.99
2017-08-21T00:15:58.350Z,1003.97
2017-08-21T00:17:08.701Z,1003.99
2017-08-21T00:18:19.106Z,1003.98
2017-08-21T00:19:29.129Z,1003.97
2017-08-21T00:20:39.478Z,1003.98
2017-08-21T00:21:49.829Z,1003.95
2017-08-21T00:23:00.188Z,1003.94
2017-08-21T00:24:10.282Z,1003.93
2017-08-21T00:25:20.639Z,1003.92
2017-08-21T00:26:35.787Z,1003.97
2017-08-21T00:27:45.846Z,1003.95
2017-08-21T00:28:55.892Z,1003.96
2017-08-21T00:30:06.281Z,1003.95
2017-08-21T00:31:16.620Z,1003.97
2017-08-21T00:32:26.979Z,1004.03
2017-08-21T00:33:37.022Z,1003.97
2017-08-21T00:34:47.045Z,1004
2017-08-21T00:35:57.438Z,1004.05
2017-08-21T00:37:07.770Z,1004.04
2017-08-21T00:38:18.127Z,1004.03
2017-08-21T00:39:28.470Z,1004.02
2017-08-21T00:40:38.818Z,1003.98
2017-08-21T00:41:49.227Z,1004.01
2017-08-21T00:42:59.254Z,1003.98
2017-08-21T00:44:09.324Z,1003.94
2017-08-21T00:45:19.374Z,1003.97
2017-08-21T00:46:29.737Z,1003.99
2017-08-21T00:47:40.135Z,1003.97
2017-08-21T00:48:50.177Z,1003.95
2017-08-21T00:50:00.210Z,1003.99
2017-08-21T00:51:10.553Z,1003.99
2017-08-21T00:52:20.894Z,1003.92
2017-08-21T00:53:31.270Z,1003.92
2017-08-21T00:54:41.299Z,1003.94
2017-08-21T00:55:54.218Z,1003.94
2017-08-21T00:57:04.560Z,1003.95
2017-08-21T00:58:14.916Z,1003.92
2017-08-21T00:59:24.999Z,1003.93
2017-08-21T01:00:35.357Z,1003.96
2017-08-21T01:01:45.375Z,1003.94
2017-08-21T01:02:55.400Z,1003.97
2017-08-21T01:04:05.785Z,1003.99
2017-08-21T01:05:15.883Z,1003.97
2017-08-21T01:06:26.220Z,1003.94
2017-08-21T01:07:36.564Z,1003.98
2017-08-21T01:08:46.903Z,1003.94
2017-08-21T01:09:57.238Z,1003.93
2017-08-21T01:11:07.653Z,1003.92
2017-08-21T01:12:17.379Z,1003.95
2017-08-21T01:13:27.721Z,1003.89
2017-08-21T01:14:38.052Z,1003.9
2017-08-21T01:15:48.088Z,1003.82
2017-08-21T01:16:58.175Z,1003.88
2017-08-21T01:18:08.523Z,1003.83
2017-08-21T01:19:18.876Z,1003.85
2017-08-21T01:20:29.216Z,1003.85
2017-08-21T01:21:39.551Z,1003.85
2017-08-21T01:22:50.313Z,1003.85
2017-08-21T01:24:00.668Z,1003.86
2017-08-21T01:25:11.028Z,1003.9
2017-08-21T01:26:21.367Z,1003.9
2017-08-21T01:27:31.706Z,1003.92
2017-08-21T01:28:41.477Z,1003.88
2017-08-21T01:29:51.818Z,1003.87
2017-08-21T01:31:02.185Z,1003.87
2017-08-21T01:32:12.530Z,1003.85
2017-08-21T01:33:27.590Z,1003.85
2017-08-21T01:34:37.982Z,1003.83
2017-08-21T01:35:50.030Z,1003.86
2017-08-21T01:37:00.375Z,1003.85
2017-08-21T01:38:10.099Z,1003.86
2017-08-21T01:39:20.465Z,1003.89
2017-08-21T01:40:30.542Z,1003.88
2017-08-21T01:41:40.898Z,1003.89
2017-08-21T01:42:51.260Z,1003.86
2017-08-21T01:44:01.605Z,1003.82
2017-08-21T01:45:11.643Z,1003.81
2017-08-21T01:46:21.726Z,1003.82
2017-08-21T01:47:32.123Z,1003.81
2017-08-21T01:48:42.473Z,1003.77
2017-08-21T01:49:52.810Z,1003.79
2017-08-21T01:51:02.835Z,1003.76
2017-08-21T01:52:13.244Z,1003.78
2017-08-21T01:53:23.593Z,1003.82
2017-08-21T01:54:33.997Z,1003.76
2017-08-21T01:55:44.039Z,1003.79
2017-08-21T01:56:54.382Z,1003.8
2017-08-21T01:58:04.783Z,1003.76
2017-08-21T01:59:15.144Z,1003.76
2017-08-21T02:00:25.492Z,1003.74
2017-08-21T02:01:35.827Z,1003.72
2017-08-21T02:02:46.185Z,1003.69
2017-08-21T02:03:56.266Z,1003.72
2017-08-21T02:05:05.981Z,1003.71
2017-08-21T02:06:16.317Z,1003.69
2017-08-21T02:07:26.352Z,1003.68
2017-08-21T02:08:36.691Z,1003.71
2017-08-21T02:09:46.769Z,1003.74
2017-08-21T02:10:57.124Z,1003.68
2017-08-21T02:12:07.385Z,1003.68
2017-08-21T02:13:17.726Z,1003.66
2017-08-21T02:14:27.768Z,1003.68
2017-08-21T02:15:37.852Z,1003.67
2017-08-21T02:16:47.892Z,1003.66
2017-08-21T02:17:58.240Z,1003.66
2017-08-21T02:19:07.964Z,1003.69
2017-08-21T02:20:18.319Z,1003.73
2017-08-21T02:21:28.712Z,1003.73
2017-08-21T02:22:39.062Z,1003.71
2017-08-21T02:23:49.411Z,1003.7
2017-08-21T02:24:59.439Z,1003.7
2017-08-21T02:26:10.419Z,1003.7
2017-08-21T02:27:20.196Z,1003.72
2017-08-21T02:28:30.540Z,1003.76
2017-08-21T02:29:40.870Z,1003.71
2017-08-21T02:30:51.216Z,1003.71
2017-08-21T02:32:01.589Z,1003.7
2017-08-21T02:33:11.976Z,1003.7
2017-08-21T02:34:22.312Z,1003.71
2017-08-21T02:35:32.338Z,1003.73
2017-08-21T02:36:42.386Z,1003.71
2017-08-21T02:37:52.722Z,1003.76
2017-08-21T02:39:02.490Z,1003.79
2017-08-21T02:40:12.841Z,1003.8
2017-08-21T02:41:22.864Z,1003.81
2017-08-21T02:42:32.949Z,1003.85
2017-08-21T02:43:43.293Z,1003.86
2017-08-21T02:44:53.697Z,1003.85
2017-08-21T02:46:04.047Z,1003.9
2017-08-21T02:47:14.402Z,1003.86
2017-08-21T02:48:24.768Z,1003.91
2017-08-21T02:49:35.211Z,1003.87
2017-08-21T02:50:45.614Z,1003.86
2017-08-21T02:51:55.977Z,1003.83
2017-08-21T02:53:06.314Z,1003.82
2017-08-21T02:54:16.353Z,1003.79
2017-08-21T02:55:26.400Z,1003.79
2017-08-21T02:56:36.170Z,1003.81
2017-08-21T02:57:46.204Z,1003.78
2017-08-21T02:58:56.267Z,1003.8
2017-08-21T03:00:05.979Z,1003.85
2017-08-21T03:01:16.331Z,1003.77
2017-08-21T03:32:56.517Z,1003.55
2017-08-21T03:34:06.853Z,1003.55
2017-08-21T03:35:17.183Z,1003.53
2017-08-21T03:36:27.215Z,1003.5
2017-08-21T03:37:37.558Z,1003.51
2017-08-21T03:38:47.950Z,1003.57
2017-08-21T03:39:58.294Z,1003.58
2017-08-21T03:41:10.212Z,1003.62
2017-08-21T03:42:20.564Z,1003.62
2017-08-21T03:43:30.588Z,1003.63
2017-08-21T03:44:40.970Z,1003.63
2017-08-21T03:45:51.356Z,1003.58
2017-08-21T03:47:01.694Z,1003.57
2017-08-21T03:48:11.724Z,1003.6
2017-08-21T03:49:21.762Z,1003.6
2017-08-21T03:50:31.854Z,1003.6
2017-08-21T03:51:42.191Z,1003.67
2017-08-21T03:52:52.228Z,1003.63
2017-08-21T03:54:02.268Z,1003.64
2017-08-21T03:55:12.617Z,1003.66
2017-08-21T03:56:22.998Z,1003.66
2017-08-21T03:57:33.347Z,1003.67
2017-08-21T03:58:43.696Z,1003.71
2017-08-21T03:59:54.063Z,1003.7
2017-08-21T04:01:04.135Z,1003.71
2017-08-21T04:02:14.213Z,1003.73
2017-08-21T04:03:24.239Z,1003.8
2017-08-21T04:04:34.579Z,1003.74
2017-08-21T04:05:44.923Z,1003.72
2017-08-21T04:06:55.269Z,1003.73
2017-08-21T04:08:05.675Z,1003.68
2017-08-21T04:09:15.698Z,1003.75
2017-08-21T04:10:26.049Z,1003.72
2017-08-21T04:11:36.415Z,1003.78
2017-08-21T04:12:46.745Z,1003.81
2017-08-21T04:13:56.515Z,1003.87
2017-08-21T04:15:06.851Z,1003.87
2017-08-21T04:16:17.192Z,1003.84
2017-08-21T04:17:27.552Z,1003.83
2017-08-21T04:18:37.899Z,1003.86
2017-08-21T04:19:48.287Z,1003.8
2017-08-21T04:20:58.019Z,1003.83
2017-08-21T04:22:08.059Z,1003.82
2017-08-21T04:23:18.108Z,1003.86
2017-08-21T04:24:28.454Z,1003.86
2017-08-21T04:25:38.536Z,1003.83
2017-08-21T04:26:48.877Z,1003.86
2017-08-21T04:27:59.211Z,1003.85
2017-08-21T04:29:09.240Z,1003.87
2017-08-21T04:30:19.574Z,1003.84
2017-08-21T04:31:29.966Z,1003.85
2017-08-21T04:32:40.313Z,1003.84
2017-08-21T04:33:50.671Z,1003.85
2017-08-21T04:35:01.021Z,1003.87
2017-08-21T04:36:11.370Z,1003.9
2017-08-21T04:37:21.765Z,1003.9
2017-08-21T04:38:31.485Z,1003.85
2017-08-21T04:39:41.852Z,1003.94
2017-08-21T04:40:52.224Z,1004.02
2017-08-21T04:42:02.251Z,1004.16
2017-08-21T04:43:12.335Z,1004.19
2017-08-21T04:44:22.685Z,1004.2
2017-08-21T04:45:33.026Z,1004.19
2017-08-21T04:46:43.372Z,1004.23
2017-08-21T04:47:53.400Z,1004.26
2017-08-21T04:49:02.857Z,1004.26
2017-08-21T04:50:13.204Z,1004.22
2017-08-21T04:51:23.548Z,1004.21
2017-08-21T04:52:33.884Z,1004.15
2017-08-21T04:53:43.919Z,1004.12
2017-08-21T04:54:54.309Z,1004.14
2017-08-21T04:56:04.349Z,1004.15
2017-08-21T04:57:14.683Z,1004.16
2017-08-21T04:58:25.017Z,1004.18
2017-08-21T04:59:35.355Z,1004.17
2017-08-21T05:00:45.769Z,1004.17
2017-08-21T05:01:56.113Z,1004.2
2017-08-21T05:03:07.636Z,1004.19
2017-08-21T05:04:17.692Z,1004.23
2017-08-21T05:05:28.292Z,1004.23
2017-08-21T05:06:39.233Z,1004.26
2017-08-21T05:07:49.606Z,1004.31
2017-08-21T05:08:59.985Z,1004.28
2017-08-21T05:10:10.335Z,1004.35
2017-08-21T05:11:20.685Z,1004.37
2017-08-21T05:12:30.772Z,1004.51
2017-08-21T05:13:41.128Z,1004.68
2017-08-21T05:14:51.476Z,1004.62
2017-08-21T05:16:01.823Z,1004.51
2017-08-21T05:17:11.848Z,1004.54
2017-08-21T05:18:22.237Z,1004.58
2017-08-21T05:19:32.602Z,1004.57
2017-08-21T05:20:42.665Z,1004.54
2017-08-21T05:21:52.721Z,1004.49
2017-08-21T05:23:03.073Z,1004.49
2017-08-21T05:24:13.152Z,1004.52
2017-08-21T05:25:23.493Z,1004.51
2017-08-21T05:26:33.850Z,1004.51
2017-08-21T05:27:45.382Z,1004.41
2017-08-21T05:28:55.415Z,1004.43
2017-08-21T05:30:05.808Z,1004.45
2017-08-21T05:31:15.549Z,1004.4
2017-08-21T05:32:25.893Z,1004.48
2017-08-21T05:33:35.929Z,1004.44
2017-08-21T05:34:45.979Z,1004.41
2017-08-21T05:35:56.380Z,1004.49
2017-08-21T05:37:06.749Z,1004.41
2017-08-21T05:38:17.099Z,1004.41
2017-08-21T05:39:27.444Z,1004.44
2017-08-21T05:40:37.809Z,1004.42
2017-08-21T05:41:48.219Z,1004.44
2017-08-21T05:42:58.569Z,1004.43
2017-08-21T05:44:08.905Z,1004.44
2017-08-21T05:45:19.271Z,1004.43
2017-08-21T05:46:29.622Z,1004.29
2017-08-21T05:47:40.020Z,1004.08
2017-08-21T05:48:50.370Z,1004.04
2017-08-21T05:50:00.763Z,1004.04
2017-08-21T05:51:10.476Z,1004.12
2017-08-21T05:52:20.831Z,1004.35
2017-08-21T05:53:31.241Z,1004.31
2017-08-21T05:54:41.284Z,1004.2
2017-08-21T05:55:51.627Z,1004.17
2017-08-21T05:57:01.669Z,1004.16
2017-08-21T05:58:11.747Z,1004.13
2017-08-21T05:59:22.123Z,1004.21
2017-08-21T06:00:32.463Z,1004.23
2017-08-21T06:01:42.499Z,1004.28
2017-08-21T06:02:52.858Z,1004.19
2017-08-21T06:04:03.219Z,1004.13
2017-08-21T06:05:13.608Z,1004.14
2017-08-21T06:06:23.954Z,1004.11
2017-08-21T06:07:34.301Z,1004.16
2017-08-21T06:08:45.687Z,1004.22
2017-08-21T06:09:56.045Z,1004.26
2017-08-21T06:11:06.441Z,1004.21
2017-08-21T06:12:16.785Z,1004.18
2017-08-21T06:13:27.136Z,1004.09
2017-08-21T06:14:37.486Z,1004.12
2017-08-21T06:15:47.209Z,1004.16
2017-08-21T06:16:57.604Z,1004.11
2017-08-21T06:18:09.288Z,1004.09
2017-08-21T06:19:19.671Z,1004.11
2017-08-21T06:20:30.014Z,1004.19
2017-08-21T06:21:40.390Z,1004.14
2017-08-21T06:22:50.793Z,1004.14
2017-08-21T06:24:00.824Z,1004.17
2017-08-21T06:25:10.853Z,1004.22
2017-08-21T06:26:20.907Z,1004.21
2017-08-21T06:27:30.949Z,1004.23
2017-08-21T06:28:41.738Z,1004.21
2017-08-21T06:29:52.098Z,1004.19
2017-08-21T06:31:02.130Z,1004.33
2017-08-21T06:32:12.469Z,1004.3
2017-08-21T06:33:22.823Z,1004.33
2017-08-21T06:34:32.893Z,1004.43
2017-08-21T06:35:43.241Z,1004.4
2017-08-21T06:36:53.573Z,1004.39
2017-08-21T06:38:03.926Z,1004.39
2017-08-21T06:39:14.279Z,1004.41
2017-08-21T06:40:24.705Z,1004.37
2017-08-21T06:41:34.749Z,1004.36
2017-08-21T06:42:45.110Z,1004.39
2017-08-21T06:43:55.141Z,1004.43
2017-08-21T06:45:05.188Z,1004.45
2017-08-21T06:46:15.589Z,1004.46
2017-08-21T06:47:25.319Z,1004.49
2017-08-21T06:48:35.657Z,1004.52
2017-08-21T06:49:46.016Z,1004.44
2017-08-21T06:50:56.364Z,1004.43
2017-08-21T06:52:06.767Z,1004.49
2017-08-21T06:53:16.806Z,1004.55
2017-08-21T06:54:26.832Z,1004.48
2017-08-21T06:55:37.245Z,1004.57
2017-08-21T06:56:47.295Z,1004.51
2017-08-21T06:57:57.703Z,1004.45
2017-08-21T06:59:08.057Z,1004.52
2017-08-21T07:00:18.095Z,1004.5
2017-08-21T07:01:28.143Z,1004.5
2017-08-21T07:02:38.219Z,1004.52
2017-08-21T07:03:48.629Z,1004.48
2017-08-21T07:04:58.965Z,1004.53
2017-08-21T07:06:09.312Z,1004.54
2017-08-21T07:07:19.361Z,1004.51
2017-08-21T07:08:29.403Z,1004.51
2017-08-21T07:09:39.803Z,1004.52
2017-08-21T07:10:50.197Z,1004.48
2017-08-21T07:12:00.541Z,1004.5
2017-08-21T07:13:10.900Z,1004.52
2017-08-21T07:14:20.942Z,1004.49
2017-08-21T07:15:31.334Z,1004.47
2017-08-21T07:16:41.358Z,1004.55
2017-08-21T07:17:51.092Z,1004.45
2017-08-21T07:19:01.458Z,1004.56
2017-08-21T07:20:11.804Z,1004.45
2017-08-21T07:21:22.230Z,1004.47
2017-08-21T07:22:32.262Z,1004.44
2017-08-21T07:23:42.305Z,1004.39
2017-08-21T07:24:52.657Z,1004.49
2017-08-21T07:26:03.006Z,1004.42
2017-08-21T07:27:13.411Z,1004.49
2017-08-21T07:28:23.459Z,1004.48
2017-08-21T07:29:33.810Z,1004.46
2017-08-21T07:30:43.854Z,1004.42
2017-08-21T07:31:56.623Z,1004.45
2017-08-21T07:33:07.015Z,1004.47
2017-08-21T07:34:17.053Z,1004.45
2017-08-21T07:35:27.748Z,1004.46
2017-08-21T07:36:37.781Z,1004.48
2017-08-21T07:37:48.147Z,1004.54
2017-08-21T07:38:58.232Z,1004.44
2017-08-21T07:40:08.261Z,1004.48
2017-08-21T07:41:18.298Z,1004.49
2017-08-21T07:42:28.654Z,1004.45
2017-08-21T07:43:38.716Z,1004.55
2017-08-21T07:44:48.793Z,1004.5
2017-08-21T07:45:58.863Z,1004.5
2017-08-21T07:47:08.940Z,1004.54
2017-08-21T07:48:18.672Z,1004.52
2017-08-21T07:49:29.045Z,1004.52
2017-08-21T07:50:39.508Z,1004.55
2017-08-21T07:51:49.889Z,1004.52
2017-08-21T07:53:00.267Z,1004.58
2017-08-21T07:54:10.306Z,1004.52
2017-08-21T07:55:20.675Z,1004.52
2017-08-21T07:56:30.745Z,1004.45
2017-08-21T07:57:40.469Z,1004.47
2017-08-21T07:58:50.825Z,1004.49
2017-08-21T08:00:01.189Z,1004.46
2017-08-21T08:01:11.561Z,1004.43
2017-08-21T08:02:21.947Z,1004.39
2017-08-21T08:03:32.291Z,1004.42
2017-08-21T08:04:45.445Z,1004.45
2017-08-21T08:05:55.791Z,1004.4
2017-08-21T08:07:06.140Z,1004.39
2017-08-21T08:08:16.559Z,1004.49
2017-08-21T08:09:26.896Z,1004.44
2017-08-21T08:10:37.241Z,1004.36
2017-08-21T08:11:48.343Z,1004.38
2017-08-21T08:12:58.524Z,1004.44
2017-08-21T08:14:08.624Z,1004.33
2017-08-21T08:15:18.958Z,1004.32
2017-08-21T08:16:29.297Z,1004.37
2017-08-21T08:17:39.643Z,1004.38
2017-08-21T08:18:51.323Z,1004.39
2017-08-21T08:20:01.402Z,1004.34
2017-08-21T08:21:11.439Z,1004.41
2017-08-21T08:22:21.782Z,1004.46
2017-08-21T08:23:34.544Z,1004.45
2017-08-21T08:24:44.880Z,1004.42
2017-08-21T08:25:54.996Z,1004.44
2017-08-21T08:27:05.337Z,1004.38
2017-08-21T08:28:15.395Z,1004.41
2017-08-21T08:29:25.769Z,1004.47
2017-08-21T08:30:36.136Z,1004.43
2017-08-21T08:31:46.537Z,1004.43
2017-08-21T08:32:56.578Z,1004.48
2017-08-21T08:34:06.621Z,1004.49
2017-08-21T08:35:17.214Z,1004.49
2017-08-21T08:36:27.560Z,1004.41
2017-08-21T08:37:37.657Z,1004.4
2017-08-21T08:38:47.688Z,1004.49
2017-08-21T08:39:58.063Z,1004.43
2017-08-21T08:41:08.415Z,1004.41
2017-08-21T08:42:18.902Z,1004.43
2017-08-21T08:43:29.295Z,1004.43
2017-08-21T08:44:39.337Z,1004.41
2017-08-21T08:45:49.729Z,1004.47
2017-08-21T08:46:59.783Z,1004.39
2017-08-21T08:48:10.268Z,1004.47
2017-08-21T08:49:25.800Z,1004.5
2017-08-21T08:50:40.292Z,1004.44
2017-08-21T08:51:55.402Z,1004.4
2017-08-21T08:53:11.366Z,1004.42
2017-08-21T08:54:28.068Z,1004.36
2017-08-21T08:55:43.050Z,1004.35
2017-08-21T08:57:00.930Z,1004.23
2017-08-21T08:58:18.310Z,1004.32
2017-08-21T08:59:33.920Z,1004.33
2017-08-21T09:00:52.371Z,1004.34
2017-08-21T09:02:07.558Z,1004.29
2017-08-21T09:03:19.459Z,1004.31
2017-08-21T09:04:29.846Z,1004.27
2017-08-21T09:05:40.294Z,1004.28
2017-08-21T09:06:50.705Z,1004.24
2017-08-21T09:08:00.789Z,1004.26
2017-08-21T09:09:10.883Z,1004.2
2017-08-21T09:10:21.317Z,1004.22
2017-08-21T09:11:31.402Z,1004.23
2017-08-21T09:12:41.776Z,1004.22
2017-08-21T09:13:52.162Z,1004.14
2017-08-21T09:15:02.551Z,1004.15
2017-08-21T09:16:12.987Z,1004.19
2017-08-21T09:17:23.072Z,1004.15
2017-08-21T09:18:33.481Z,1004.17
2017-08-21T09:19:44.550Z,1004.14
2017-08-21T09:20:54.949Z,1004.09
2017-08-21T09:22:05.091Z,1004.11
2017-08-21T09:23:15.465Z,1004.07
2017-08-21T09:24:25.523Z,1004.11
2017-08-21T09:25:35.696Z,1004.05
2017-08-21T09:26:45.773Z,1004.18
2017-08-21T09:27:56.231Z,1004.06
2017-08-21T09:29:06.627Z,1004
2017-08-21T09:30:17.001Z,1004.04
2017-08-21T09:31:26.781Z,1004.06
2017-08-21T09:32:37.178Z,1004.03
2017-08-21T09:33:47.621Z,1004.06
2017-08-21T09:34:57.989Z,1004
2017-08-21T09:36:08.052Z,1004
2017-08-21T09:37:18.420Z,1004.01
2017-08-21T09:38:28.777Z,1003.97
2017-08-21T09:39:38.884Z,1003.99
2017-08-21T09:40:48.625Z,1003.9
2017-08-21T09:41:58.687Z,1003.99
2017-08-21T09:43:09.072Z,1003.95
2017-08-21T09:44:19.118Z,1004.06
2017-08-21T09:45:29.536Z,1003.96
2017-08-21T09:46:39.274Z,1003.93
2017-08-21T09:47:49.643Z,1003.94
2017-08-21T09:49:01.672Z,1003.92
2017-08-21T09:50:12.065Z,1003.9
2017-08-21T09:51:22.503Z,1003.89
2017-08-21T09:52:32.877Z,1003.88
2017-08-21T09:53:42.916Z,1003.87
2017-08-21T09:54:53.250Z,1003.8
2017-08-21T09:56:03.307Z,1003.84
2017-08-21T09:57:13.443Z,1003.93
2017-08-21T09:58:23.805Z,1003.89
2017-08-21T09:59:34.181Z,1003.88
2017-08-21T10:00:44.544Z,1003.9
2017-08-21T10:01:54.918Z,1003.88
2017-08-21T10:03:05.370Z,1003.81
2017-08-21T10:04:15.784Z,1003.8
2017-08-21T10:05:26.165Z,1003.83
2017-08-21T10:06:38.411Z,1003.86
2017-08-21T10:07:48.455Z,1003.85
2017-08-21T10:08:58.891Z,1003.79
2017-08-21T10:10:09.262Z,1003.75
2017-08-21T10:11:19.664Z,1003.74
2017-08-21T10:12:29.740Z,1003.73
2017-08-21T10:13:40.123Z,1003.76
2017-08-21T10:14:50.196Z,1003.75
2017-08-21T10:16:00.572Z,1003.71
2017-08-21T10:17:10.636Z,1003.73
2017-08-21T10:18:20.994Z,1003.71
2017-08-21T10:19:31.058Z,1003.73
2017-08-21T10:20:41.485Z,1003.84
2017-08-21T10:21:51.871Z,1003.75
2017-08-21T10:23:01.623Z,1003.64
2017-08-21T10:24:11.657Z,1003.78
2017-08-21T10:25:22.008Z,1003.75
2017-08-21T10:26:32.373Z,1003.83
2017-08-21T10:27:42.117Z,1003.65
2017-08-21T10:28:52.165Z,1003.66
2017-08-21T10:30:02.535Z,1003.65
2017-08-21T10:31:12.896Z,1003.76
2017-08-21T10:32:23.318Z,1003.74
2017-08-21T10:33:33.658Z,1003.65
2017-08-21T10:34:43.407Z,1003.71
2017-08-21T10:35:53.768Z,1003.72
2017-08-21T10:37:03.838Z,1003.63
2017-08-21T10:38:13.958Z,1003.72
2017-08-21T10:39:23.992Z,1003.66
2017-08-21T10:40:34.370Z,1003.61
2017-08-21T10:41:44.744Z,1003.59
2017-08-21T10:42:55.121Z,1003.5
2017-08-21T10:44:05.222Z,1003.56
2017-08-21T10:45:15.273Z,1003.54
2017-08-21T10:46:25.634Z,1003.63
2017-08-21T10:47:35.698Z,1003.58
2017-08-21T10:48:46.060Z,1003.58
2017-08-21T10:49:56.501Z,1003.58
2017-08-21T10:51:06.549Z,1003.59
2017-08-21T10:52:16.904Z,1003.55
2017-08-21T10:53:26.982Z,1003.5
2017-08-21T10:54:37.028Z,1003.49
2017-08-21T10:55:47.449Z,1003.41
2017-08-21T10:56:57.494Z,1003.5
2017-08-21T10:58:07.897Z,1003.49
2017-08-21T10:59:17.939Z,1003.56
2017-08-21T11:00:28.328Z,1003.54
2017-08-21T11:01:38.734Z,1003.59
2017-08-21T11:02:49.091Z,1003.43
2017-08-21T11:03:59.146Z,1003.48
2017-08-21T11:05:09.528Z,1003.46
2017-08-21T11:06:19.892Z,1003.34
2017-08-21T11:07:30.300Z,1003.42
2017-08-21T11:08:40.020Z,1003.45
2017-08-21T11:09:50.400Z,1003.42
2017-08-21T11:11:00.762Z,1003.46
2017-08-21T11:12:11.124Z,1003.46
2017-08-21T11:13:21.219Z,1003.49
2017-08-21T11:14:31.575Z,1003.42
2017-08-21T11:15:41.629Z,1003.38
2017-08-21T11:16:52.685Z,1003.34
2017-08-21T11:18:03.072Z,1003.35
2017-08-21T11:19:12.851Z,1003.36
2017-08-21T11:20:22.933Z,1003.3
2017-08-21T11:21:35.714Z,1003.32
2017-08-21T11:22:48.636Z,1003.33
2017-08-21T11:23:58.990Z,1003.25
2017-08-21T11:25:09.438Z,1003.28
2017-08-21T11:26:19.806Z,1003.26
2017-08-21T11:27:30.178Z,1003.22
2017-08-21T11:28:40.546Z,1003.26
2017-08-21T11:29:50.905Z,1003.23
2017-08-21T11:31:00.366Z,1003.3
2017-08-21T11:32:10.776Z,1003.22
2017-08-21T11:33:21.165Z,1003.19
2017-08-21T11:34:31.214Z,1003.23
2017-08-21T11:35:41.287Z,1003.23
2017-08-21T11:36:51.423Z,1003.2
2017-08-21T11:38:01.793Z,1003.21
2017-08-21T11:39:12.865Z,1003.23
2017-08-21T11:40:22.929Z,1003.26
2017-08-21T11:41:32.995Z,1003.3
2017-08-21T11:42:43.412Z,1003.24
2017-08-21T11:43:53.767Z,1003.19
2017-08-21T11:45:04.145Z,1003.23
2017-08-21T11:46:14.513Z,1003.23
2017-08-21T11:47:24.901Z,1003.16
2017-08-21T11:48:35.303Z,1003.34
2017-08-21T11:49:45.651Z,1003.25
2017-08-21T11:50:56.042Z,1003.24
2017-08-21T11:52:06.088Z,1003.27
2017-08-21T11:53:16.121Z,1003.25
2017-08-21T11:54:26.214Z,1003.15
2017-08-21T11:55:36.561Z,1003.23
2017-08-21T11:56:46.930Z,1003.2
2017-08-21T11:57:58.642Z,1003.16
2017-08-21T11:59:09.909Z,1003.19
2017-08-21T12:00:20.337Z,1003.19
2017-08-21T12:01:32.705Z,1003.14
2017-08-21T12:02:44.892Z,1003.2
2017-08-21T12:03:55.257Z,1003.14
2017-08-21T12:05:05.617Z,1003.15
2017-08-21T12:06:15.109Z,1003.31
2017-08-21T12:07:25.489Z,1003.17
2017-08-21T12:08:35.858Z,1003.1
2017-08-21T12:09:46.206Z,1003.16
2017-08-21T12:10:56.587Z,1003.14
2017-08-21T12:12:06.995Z,1003.1
2017-08-21T12:13:17.384Z,1003.11
2017-08-21T12:14:27.745Z,1003.16
2017-08-21T12:15:38.117Z,1003.18
2017-08-21T12:16:48.496Z,1003.14
2017-08-21T12:17:58.910Z,1003.13
2017-08-21T12:19:08.977Z,1003.22
2017-08-21T12:20:19.019Z,1003.16
2017-08-21T12:21:29.396Z,1003.16
2017-08-21T12:22:39.778Z,1003.14
2017-08-21T12:23:50.219Z,1003.12
2017-08-21T12:25:00.268Z,1003.23
2017-08-21T12:26:10.664Z,1003.13
2017-08-21T12:27:21.037Z,1003.09
2017-08-21T12:28:31.398Z,1003.15
2017-08-21T12:29:41.491Z,1003.11
2017-08-21T12:30:51.878Z,1003.02
2017-08-21T12:32:01.924Z,1003.09
2017-08-21T12:33:12.315Z,1003.11
2017-08-21T12:34:22.672Z,1003.09
2017-08-21T12:35:32.776Z,1003.04
2017-08-21T12:36:43.142Z,1003.08
2017-08-21T12:37:53.521Z,1003.12
2017-08-21T12:39:03.613Z,1003.16
2017-08-21T12:40:14.941Z,1003.12
2017-08-21T12:41:24.855Z,1003.21
2017-08-21T12:42:39.328Z,1003.1
2017-08-21T12:43:49.368Z,1003.06
2017-08-21T12:44:59.730Z,1003.04
2017-08-21T12:46:10.105Z,1003.1
2017-08-21T12:47:20.531Z,1003.1
2017-08-21T12:48:30.289Z,1003.09
2017-08-21T12:49:42.594Z,1003.12
2017-08-21T12:50:52.987Z,1003.06
2017-08-21T12:52:03.347Z,1003.06
2017-08-21T12:53:15.638Z,1003.12
2017-08-21T12:54:26.025Z,1003.09
2017-08-21T12:55:38.903Z,1003.04
2017-08-21T12:56:49.286Z,1003.03
2017-08-21T12:57:59.339Z,1003.02
2017-08-21T12:59:09.757Z,1003.06
2017-08-21T13:00:20.137Z,1003.07
2017-08-21T13:01:30.212Z,1002.99
2017-08-21T13:02:40.269Z,1003.06
2017-08-21T13:03:50.636Z,1003
2017-08-21T13:05:00.753Z,1003.11
2017-08-21T13:06:11.126Z,1002.98
2017-08-21T13:07:21.179Z,1002.98
2017-08-21T13:08:31.556Z,1003.04
2017-08-21T13:09:41.912Z,1003.09
2017-08-21T13:10:53.297Z,1003.05
2017-08-21T13:12:03.661Z,1002.93
2017-08-21T13:13:14.249Z,1002.92
2017-08-21T13:14:24.633Z,1002.89
2017-08-21T13:15:34.075Z,1002.9
2017-08-21T13:16:44.481Z,1002.94
2017-08-21T13:17:53.915Z,1002.93
2017-08-21T13:19:04.302Z,1002.96
2017-08-21T13:20:14.675Z,1002.94
2017-08-21T13:21:25.387Z,1002.95
2017-08-21T13:22:35.805Z,1002.95
2017-08-21T13:23:46.161Z,1002.96
2017-08-21T13:24:56.225Z,1002.94
2017-08-21T13:26:07.914Z,1002.99
2017-08-21T13:27:17.968Z,1003.03
2017-08-21T13:28:28.372Z,1002.98
2017-08-21T13:29:40.838Z,1002.96
2017-08-21T13:30:51.205Z,1002.97
2017-08-21T13:32:01.847Z,1003
2017-08-21T13:33:12.171Z,1002.98
2017-08-21T13:34:22.606Z,1002.96
2017-08-21T13:35:32.787Z,1002.88
2017-08-21T13:36:42.812Z,1002.93
2017-08-21T13:37:52.896Z,1002.98
2017-08-21T13:39:02.946Z,1002.92
2017-08-21T13:40:13.397Z,1002.9
2017-08-21T13:41:23.859Z,1002.88
2017-08-21T13:42:33.637Z,1002.85
2017-08-21T13:43:43.759Z,1002.85
2017-08-21T13:44:54.209Z,1002.83
2017-08-21T13:46:04.484Z,1002.84
2017-08-21T13:47:15.754Z,1002.84
2017-08-21T13:48:25.810Z,1002.82
2017-08-21T13:49:36.311Z,1002.85
2017-08-21T13:50:46.725Z,1002.82
2017-08-21T13:51:57.131Z,1002.86
2017-08-21T13:53:07.590Z,1002.88
2017-08-21T13:54:17.770Z,1002.88
2017-08-21T13:55:28.405Z,1002.81
2017-08-21T13:56:42.894Z,1002.74
2017-08-21T13:57:53.155Z,1002.75
2017-08-21T13:59:05.189Z,1002.76
2017-08-21T14:00:17.427Z,1002.69
2017-08-21T14:01:27.848Z,1002.69
2017-08-21T14:02:37.912Z,1002.7
2017-08-21T14:03:48.021Z,1002.64
2017-08-21T14:04:58.382Z,1002.66
2017-08-21T14:06:08.887Z,1002.58
2017-08-21T14:07:19.313Z,1002.62
2017-08-21T14:08:32.238Z,1002.59
2017-08-21T14:09:42.725Z,1002.62
2017-08-21T14:10:53.093Z,1002.59
2017-08-21T14:12:03.743Z,1002.57
2017-08-21T14:13:14.177Z,1002.62
2017-08-21T14:14:24.231Z,1002.69
2017-08-21T14:15:34.695Z,1002.67
2017-08-21T14:16:44.732Z,1002.65
2017-08-21T14:17:55.137Z,1002.59
2017-08-21T14:19:05.498Z,1002.59
2017-08-21T14:20:15.869Z,1002.58
2017-08-21T14:21:25.971Z,1002.58
2017-08-21T14:22:36.339Z,1002.6
2017-08-21T14:23:46.707Z,1002.6
2017-08-21T14:24:57.142Z,1002.58
2017-08-21T14:26:07.384Z,1002.6
2017-08-21T14:27:17.973Z,1002.53
2017-08-21T14:28:29.001Z,1002.5
2017-08-21T14:29:41.810Z,1002.59
2017-08-21T14:30:53.764Z,1002.53
2017-08-21T14:32:07.897Z,1002.56
2017-08-21T14:33:23.221Z,1002.59
2017-08-21T14:34:39.258Z,1002.57
2017-08-21T14:37:20.682Z,1002.57
2017-08-21T14:38:34.701Z,1002.65
2017-08-21T14:39:49.273Z,1002.59
2017-08-21T14:41:03.505Z,1002.57
2017-08-21T14:42:17.560Z,1002.56
2017-08-21T14:43:31.749Z,1002.56
2017-08-21T14:44:46.193Z,1002.6
2017-08-21T14:46:00.163Z,1002.56
2017-08-21T14:47:14.004Z,1002.57
2017-08-21T14:48:29.030Z,1002.62